This is the latest recevied weather packets stored in our database for station/object DG1JLA-3. If no packets are shown the sender has not sent any weather packets the latest 1 day(s).
| Time | Temp. | Humidity | Pressure | Rain* | Wind** | Luminosity | Snow |
|---|---|---|---|---|---|---|---|
| 1778030089 | 11.11° C | 94% | 1007.5 hPa | 0 mm | - | - | - |
| 1778029789 | 11.11° C | 94% | 1007.5 hPa | 0 mm | - | - | - |
| 1778029489 | 11.11° C | 94% | 1007.6 hPa | 0 mm | - | - | - |
| 1778029189 | 11.11° C | 94% | 1007.5 hPa | 0 mm | - | - | - |
| 1778028889 | 11.11° C | 94% | 1007.6 hPa | 0 mm | - | - | - |
| 1778028589 | 11.11° C | 94% | 1007.6 hPa | 0 mm | - | - | - |
| 1778028289 | 11.11° C | 94% | 1007.7 hPa | 0 mm | - | - | - |
| 1778027989 | 11.11° C | 94% | 1007.7 hPa | 0 mm | - | - | - |
| 1778027689 | 11.11° C | 94% | 1007.6 hPa | 0 mm | - | - | - |
| 1778027389 | 11.11° C | 94% | 1007.8 hPa | 0 mm | - | - | - |
| 1778027089 | 11.11° C | 94% | 1007.9 hPa | 0 mm | - | - | - |
| 1778026789 | 11.11° C | 94% | 1007.8 hPa | 0 mm | - | - | - |
| 1778026489 | 11.11° C | 94% | 1007.8 hPa | 0 mm | - | - | - |
| 1778026189 | 11.11° C | 94% | 1007.9 hPa | 0 mm | - | - | - |
| 1778025889 | 11.11° C | 94% | 1008 hPa | 0 mm | - | - | - |
| 1778025289 | 11.11° C | 94% | 1008.3 hPa | 0 mm | - | - | - |
| 1778024989 | 11.11° C | 94% | 1008.3 hPa | 0 mm | - | - | - |
| 1778024689 | 11.11° C | 94% | 1008.2 hPa | 0 mm | - | - | - |
| 1778022889 | 11.11° C | 94% | 1008.4 hPa | 0.51 mm | - | - | - |
| 1778022289 | 11.11° C | 94% | 1008.3 hPa | 0.76 mm | - | - | - |
| 1778011190 | 12.78° C | 93% | 1007.6 hPa | 2.03 mm | - | - | - |
| 1778010590 | 12.78° C | 93% | 1007.9 hPa | 1.02 mm | - | - | - |
| 1778010290 | 12.78° C | 93% | 1007.9 hPa | 0.76 mm | - | - | - |
| 1778009990 | 12.78° C | 93% | 1007.7 hPa | 1.02 mm | - | - | - |
| 1778009690 | 12.78° C | 93% | 1007.7 hPa | 1.78 mm | - | - | - |
* Rain latest hour (hover to see other rain measurements)
** Current wind speed in m/s (hover to see current wind gust speed)